Disclaimer

Please do not use the information listed here in-flight or in-navigation, as they are not provided to us by the airports but are provided by volunteers, so they might be outdated.

Search


Regions


Airport information page

Radio informations:
Tower (TWR) - 118.5 MHz
ARMENIA RDO - 3488 MHz
PEREIRA APP - 119.9 MHz

Airport informations:
Latitude: 04° 27' 09.99" N
Longitude: 075° 45' 59.21" W
Elevation: 3990 feet - 1216 meters
Operating hours: Remarks
Operating agency: Civil government, landing fees and diplomatic clearance may be required
Timezone: UTC-5
Fuel: Jet A1, without icing nhibitor.

100/130 MIL Spec, low lead, aviation gasoline (BLUE)

Runway information:
02/20 - 7045 x 118 feet< - >2147 x 36 meters

Recent METARs:
SKAR 210200Z 00000KT 9999 SCT020 21/19 A3002
SKAR 210200Z 00000KT 9999 SCT020 21/19 A3002
SKAR 210200Z 00000KT 9999 SCT020 21/19 A3002

Airport on the map: